createdAt,value
2018-10-21T00:01:20.789Z,39.48
2018-10-21T00:03:57.462Z,39.05
2018-10-21T00:06:33.213Z,38.88
2018-10-21T00:09:10.707Z,40.88
2018-10-21T00:11:46.863Z,38.25
2018-10-21T00:14:22.657Z,38.92
2018-10-21T00:16:58.301Z,44.03
2018-10-21T00:19:34.118Z,39.78
2018-10-21T00:22:10.481Z,40.20
2018-10-21T00:24:48.482Z,38.88
2018-10-21T00:27:25.035Z,38.53
2018-10-21T00:30:01.700Z,42.30
2018-10-21T00:32:50.150Z,39.95
2018-10-21T00:35:27.464Z,46.18
2018-10-21T00:38:03.286Z,44.38
2018-10-21T00:40:38.964Z,42.62
2018-10-21T00:43:14.920Z,41.60
2018-10-21T00:45:50.773Z,43.90
2018-10-21T00:48:26.533Z,44.75
2018-10-21T00:51:02.490Z,42.05
2018-10-21T00:53:38.995Z,43.65
2018-10-21T00:56:14.864Z,42.45
2018-10-21T00:58:50.522Z,42.75
2018-10-21T01:01:26.165Z,45.63
2018-10-21T01:04:01.919Z,44.50
2018-10-21T01:06:37.935Z,43.38
2018-10-21T01:09:13.910Z,41.45
2018-10-21T01:11:50.446Z,45.92
2018-10-21T01:14:26.975Z,42.30
2018-10-21T01:17:02.685Z,43.35
2018-10-21T01:19:38.370Z,42.50
2018-10-21T01:22:14.121Z,42.67
2018-10-21T01:24:49.877Z,40.45
2018-10-21T01:27:25.635Z,40.55
2018-10-21T01:30:01.399Z,40.90
2018-10-21T01:32:38.468Z,41.65
2018-10-21T01:35:14.915Z,43.63
2018-10-21T01:37:50.745Z,40.30
2018-10-21T01:40:34.420Z,42.30
2018-10-21T01:43:13.042Z,39.65
2018-10-21T01:45:49.404Z,40.52
2018-10-21T01:48:26.589Z,41.58
2018-10-21T01:51:04.206Z,39.88
2018-10-21T01:53:40.262Z,40.73
2018-10-21T01:56:16.770Z,42.83
2018-10-21T01:58:52.525Z,44.18
2018-10-21T02:01:28.214Z,42.35
2018-10-21T02:04:04.277Z,42.23
2018-10-21T02:06:40.649Z,42.80
2018-10-21T02:09:16.333Z,42.48
2018-10-21T02:11:52.038Z,41.63
2018-10-21T02:14:27.893Z,41.08
2018-10-21T02:17:03.752Z,42.58
2018-10-21T02:19:39.425Z,41.10
2018-10-21T02:22:15.038Z,40.73
2018-10-21T02:24:51.034Z,40.30
2018-10-21T02:27:26.815Z,41.85
2018-10-21T02:30:03.668Z,42.40
2018-10-21T02:32:40.508Z,41.50
2018-10-21T02:35:16.781Z,39.30
2018-10-21T02:37:53.700Z,39.03
2018-10-21T02:41:43.031Z,40.03
2018-10-21T02:44:20.216Z,43.30
2018-10-21T02:46:57.410Z,40.38
2018-10-21T02:49:34.544Z,40.33
2018-10-21T02:52:11.318Z,40.43
2018-10-21T02:54:47.265Z,40.20
2018-10-21T02:57:23.778Z,39.85
2018-10-21T02:59:59.493Z,38.28
2018-10-21T03:02:35.347Z,40.03
2018-10-21T03:05:11.133Z,43.58
2018-10-21T03:07:47.874Z,39.80
2018-10-21T03:10:23.657Z,40.78
2018-10-21T03:12:59.443Z,39.10
2018-10-21T03:15:35.182Z,39.20
2018-10-21T03:18:10.939Z,39.70
2018-10-21T03:20:46.733Z,38.85
2018-10-21T03:23:22.549Z,37.80
2018-10-21T03:25:58.574Z,38.58
2018-10-21T03:28:35.157Z,37.20
2018-10-21T03:31:10.948Z,37.42
2018-10-21T03:33:46.822Z,36.80
2018-10-21T03:36:23.428Z,38.75
2018-10-21T03:38:59.344Z,33.80
2018-10-21T03:41:35.137Z,34.27
2018-10-21T03:44:10.844Z,35.05
2018-10-21T03:46:46.657Z,33.95
2018-10-21T03:49:23.481Z,34.10
2018-10-21T03:51:59.472Z,35.10
2018-10-21T03:54:38.362Z,36.25
2018-10-21T03:57:14.692Z,36.05
2018-10-21T03:59:50.384Z,35.28
2018-10-21T04:02:26.183Z,33.53
2018-10-21T04:05:02.042Z,38.53
2018-10-21T04:07:37.939Z,33.60
2018-10-21T04:10:14.321Z,33.85
2018-10-21T04:12:50.158Z,34.55
2018-10-21T04:15:26.066Z,35.17
2018-10-21T04:18:02.788Z,35.33
2018-10-21T04:20:38.691Z,33.95
2018-10-21T04:23:14.557Z,32.42
2018-10-21T04:25:50.451Z,35.30
2018-10-21T04:28:26.204Z,33.40
2018-10-21T04:31:01.954Z,33.23
2018-10-21T04:33:40.675Z,33.90
2018-10-21T04:36:20.522Z,33.92
2018-10-21T04:40:12.659Z,31.73
2018-10-21T04:42:49.823Z,33.13
2018-10-21T04:45:27.695Z,33.78
2018-10-21T04:48:03.262Z,35.73
2018-10-21T04:50:39.050Z,41.15
2018-10-21T04:53:14.761Z,33.80
2018-10-21T04:55:50.405Z,35.33
2018-10-21T04:58:26.305Z,36.23
2018-10-21T05:01:02.096Z,34.18
2018-10-21T05:03:37.971Z,36.25
2018-10-21T05:06:13.811Z,34.25
2018-10-21T05:08:49.480Z,42.83
2018-10-21T05:11:25.275Z,40.70
2018-10-21T05:14:01.160Z,38.10
2018-10-21T05:16:37.035Z,40.17
2018-10-21T05:19:12.726Z,37.90
2018-10-21T05:21:49.146Z,35.55
2018-10-21T05:24:25.450Z,36.35
2018-10-21T05:27:00.971Z,34.27
2018-10-21T05:29:36.719Z,35.85
2018-10-21T05:32:12.497Z,37.70
2018-10-21T05:34:48.349Z,38.05
2018-10-21T05:37:24.289Z,38.20
2018-10-21T05:40:00.165Z,39.35
2018-10-21T05:42:35.208Z,35.05
2018-10-21T05:45:11.030Z,37.60
2018-10-21T05:47:46.605Z,41.10
2018-10-21T05:50:22.617Z,37.17
2018-10-21T05:52:58.237Z,42.23
2018-10-21T05:55:33.870Z,38.10
2018-10-21T05:58:09.751Z,41.33
2018-10-21T06:00:45.489Z,39.55
2018-10-21T06:03:21.445Z,37.48
2018-10-21T06:05:57.182Z,40.10
2018-10-21T06:08:32.998Z,46.25
2018-10-21T06:11:08.698Z,43.02
2018-10-21T06:13:44.288Z,42.85
2018-10-21T06:16:19.999Z,43.48
2018-10-21T06:19:00.025Z,41.10
2018-10-21T06:21:35.748Z,43.13
2018-10-21T06:24:11.480Z,43.85
2018-10-21T06:26:47.283Z,47.05
2018-10-21T06:29:23.042Z,43.68
2018-10-21T06:31:58.888Z,41.95
2018-10-21T06:34:34.635Z,43.48
2018-10-21T06:37:10.387Z,45.35
2018-10-21T06:39:46.036Z,43.48
2018-10-21T06:42:21.992Z,42.80
2018-10-21T06:44:59.161Z,42.83
2018-10-21T06:47:35.572Z,48.28
2018-10-21T06:50:16.277Z,43.28
2018-10-21T06:52:52.170Z,46.90
2018-10-21T06:55:28.160Z,45.43
2018-10-21T06:58:03.931Z,47.48
2018-10-21T07:00:39.830Z,45.38
2018-10-21T07:03:15.620Z,38.85
2018-10-21T07:06:29.019Z,43.98
2018-10-21T07:09:06.660Z,42.75
2018-10-21T07:11:43.276Z,44.03
2018-10-21T07:14:19.013Z,46.05
2018-10-21T07:16:54.838Z,42.88
2018-10-21T07:19:30.587Z,43.63
2018-10-21T07:22:06.299Z,47.08
2018-10-21T07:24:41.986Z,43.60
2018-10-21T07:27:17.643Z,45.33
2018-10-21T07:29:53.344Z,45.65
2018-10-21T07:32:29.338Z,44.38
2018-10-21T07:35:06.732Z,42.43
2018-10-21T07:37:43.399Z,44.58
2018-10-21T07:40:19.529Z,44.55
2018-10-21T07:42:56.195Z,45.83
2018-10-21T07:45:32.907Z,42.15
2018-10-21T07:48:08.771Z,43.90
2018-10-21T07:50:45.902Z,43.60
2018-10-21T07:53:22.305Z,44.73
2018-10-21T07:55:58.103Z,44.60
2018-10-21T07:58:34.977Z,43.25
2018-10-21T08:01:11.050Z,42.90
2018-10-21T08:03:46.897Z,43.78
2018-10-21T08:06:36.287Z,41.42
2018-10-21T08:09:13.554Z,42.38
2018-10-21T08:11:50.169Z,45.30
2018-10-21T08:14:26.915Z,41.30
2018-10-21T08:17:02.722Z,45.45
2018-10-21T08:19:38.448Z,42.88
2018-10-21T08:22:14.204Z,47.15
2018-10-21T08:24:49.917Z,41.70
2018-10-21T08:27:25.887Z,43.33
2018-10-21T08:30:02.509Z,45.52
2018-10-21T08:32:39.136Z,43.20
2018-10-21T08:35:14.867Z,42.80
2018-10-21T08:37:51.679Z,41.92
2018-10-21T08:40:27.870Z,40.80
2018-10-21T08:43:04.865Z,42.58
2018-10-21T08:45:41.497Z,46.95
2018-10-21T08:48:18.330Z,46.20
2018-10-21T08:50:55.232Z,43.80
2018-10-21T08:53:32.029Z,42.27
2018-10-21T08:56:08.730Z,44.85
2018-10-21T08:58:45.590Z,40.80
2018-10-21T09:01:21.556Z,41.92
2018-10-21T09:03:58.117Z,40.30
2018-10-21T09:06:34.832Z,43.40
2018-10-21T09:09:12.282Z,43.17
2018-10-21T09:11:48.257Z,39.38
2018-10-21T09:14:23.958Z,42.35
2018-10-21T09:16:59.861Z,40.28
2018-10-21T09:19:35.737Z,44.65
2018-10-21T09:22:12.451Z,46.30
2018-10-21T09:24:48.343Z,40.20
2018-10-21T09:27:24.116Z,42.25
2018-10-21T09:30:01.778Z,40.30
2018-10-21T09:32:39.180Z,42.88
2018-10-21T09:35:17.998Z,40.23
2018-10-21T09:37:54.656Z,42.78
2018-10-21T09:40:31.883Z,41.68
2018-10-21T09:43:08.293Z,41.50
2018-10-21T09:45:44.822Z,38.60
2018-10-21T09:48:20.697Z,39.67
2018-10-21T09:50:56.536Z,38.23
2018-10-21T09:53:32.145Z,41.60
2018-10-21T09:56:08.041Z,40.43
2018-10-21T09:58:43.871Z,38.55
2018-10-21T10:01:24.821Z,40.28
2018-10-21T10:04:01.402Z,40.90
2018-10-21T10:06:37.114Z,43.08
2018-10-21T10:09:13.437Z,39.90
2018-10-21T10:11:49.701Z,38.85
2018-10-21T10:14:25.396Z,40.15
2018-10-21T10:17:01.304Z,40.28
2018-10-21T10:19:37.126Z,38.23
2018-10-21T10:22:12.954Z,35.98
2018-10-21T10:24:48.761Z,41.08
2018-10-21T10:27:24.354Z,40.25
2018-10-21T10:30:00.070Z,38.25
2018-10-21T10:32:36.151Z,39.88
2018-10-21T10:35:14.018Z,38.88
2018-10-21T10:37:51.169Z,39.35
2018-10-21T10:40:27.260Z,39.45
2018-10-21T10:43:03.274Z,39.58
2018-10-21T10:45:39.002Z,41.25
2018-10-21T10:48:14.892Z,40.28
2018-10-21T10:50:50.606Z,43.65
2018-10-21T10:53:26.369Z,41.15
2018-10-21T10:56:02.315Z,41.02
2018-10-21T10:58:38.072Z,40.95
2018-10-21T11:01:13.734Z,41.30
2018-10-21T11:03:50.553Z,40.55
2018-10-21T11:06:27.325Z,39.75
2018-10-21T11:09:02.971Z,42.90
2018-10-21T11:11:38.626Z,42.33
2018-10-21T11:14:15.237Z,42.05
2018-10-21T11:16:50.989Z,42.13
2018-10-21T11:19:26.739Z,41.95
2018-10-21T11:22:03.511Z,36.17
2018-10-21T11:24:45.208Z,41.35
2018-10-21T11:27:21.074Z,40.33
2018-10-21T11:29:56.874Z,41.55
2018-10-21T11:32:32.971Z,42.48
2018-10-21T11:35:09.588Z,41.08
2018-10-21T11:37:45.399Z,40.65
2018-10-21T11:40:21.057Z,40.23
2018-10-21T11:42:56.807Z,44.08
2018-10-21T11:47:52.161Z,40.78
2018-10-21T11:50:27.808Z,43.90
2018-10-21T11:53:03.623Z,38.05
2018-10-21T11:55:40.400Z,38.65
2018-10-21T11:58:16.236Z,40.75
2018-10-21T12:00:51.953Z,41.53
2018-10-21T12:03:28.728Z,39.73
2018-10-21T12:06:04.580Z,40.52
2018-10-21T12:08:40.354Z,39.50
2018-10-21T12:11:16.032Z,38.58
2018-10-21T12:13:52.041Z,37.53
2018-10-21T12:16:28.608Z,39.55
2018-10-21T12:19:04.536Z,40.12
2018-10-21T12:21:40.055Z,36.83
2018-10-21T12:24:15.784Z,35.63
2018-10-21T12:26:51.612Z,40.58
2018-10-21T12:29:27.317Z,41.40
2018-10-21T12:32:03.015Z,40.40
2018-10-21T12:34:38.820Z,37.40
2018-10-21T12:37:15.412Z,38.50
2018-10-21T12:39:51.288Z,39.13
2018-10-21T12:42:27.119Z,37.42
2018-10-21T12:45:03.771Z,43.02
2018-10-21T12:47:39.624Z,36.03
2018-10-21T12:50:15.338Z,35.63
2018-10-21T12:52:51.208Z,36.23
2018-10-21T12:55:27.040Z,35.80
2018-10-21T12:58:03.714Z,36.08
2018-10-21T13:00:38.729Z,36.65
2018-10-21T13:03:14.542Z,35.75
2018-10-21T13:05:50.294Z,34.92
2018-10-21T13:08:26.816Z,33.90
2018-10-21T13:11:04.250Z,37.88
2018-10-21T13:13:40.434Z,34.95
2018-10-21T13:16:17.535Z,39.35
2018-10-21T13:18:53.640Z,32.75
2018-10-21T13:21:30.440Z,32.60
2018-10-21T13:24:06.345Z,34.88
2018-10-21T13:26:42.303Z,33.50
2018-10-21T13:29:18.977Z,31.37
2018-10-21T13:31:54.989Z,35.28
2018-10-21T13:34:30.857Z,33.00
2018-10-21T13:37:07.583Z,35.63
2018-10-21T13:39:44.105Z,31.20
2018-10-21T13:42:20.111Z,33.15
2018-10-21T13:44:55.752Z,31.48
2018-10-21T13:47:31.631Z,34.85
2018-10-21T13:50:07.821Z,33.85
2018-10-21T13:52:44.352Z,31.80
2018-10-21T13:55:20.867Z,34.15
2018-10-21T13:57:56.696Z,34.88
2018-10-21T14:00:32.482Z,36.73
2018-10-21T14:04:38.450Z,32.38
2018-10-21T14:07:14.113Z,34.92
2018-10-21T14:09:50.098Z,32.50
2018-10-21T14:12:26.090Z,36.25
2018-10-21T14:15:03.091Z,34.35
2018-10-21T14:17:38.988Z,38.30
2018-10-21T14:20:14.829Z,34.92
2018-10-21T14:22:50.747Z,35.68
2018-10-21T14:25:26.685Z,39.33
2018-10-21T14:28:02.546Z,34.35
2018-10-21T14:30:38.469Z,36.70
2018-10-21T14:33:14.153Z,35.80
2018-10-21T14:35:50.311Z,35.85
2018-10-21T14:38:27.091Z,38.38
2018-10-21T14:41:03.894Z,40.55
2018-10-21T14:43:39.868Z,38.08
2018-10-21T14:46:15.805Z,39.83
2018-10-21T14:48:51.373Z,35.52
2018-10-21T14:51:27.074Z,38.98
2018-10-21T14:54:03.026Z,37.70
2018-10-21T14:56:39.545Z,37.80
2018-10-21T14:59:15.441Z,38.65
2018-10-21T15:01:51.086Z,39.38
2018-10-21T15:04:27.192Z,39.05
2018-10-21T15:07:04.003Z,35.68
2018-10-21T15:09:40.539Z,40.23
2018-10-21T15:12:16.314Z,37.25
2018-10-21T15:14:52.910Z,36.28
2018-10-21T15:17:30.900Z,37.35
2018-10-21T15:20:10.566Z,38.88
2018-10-21T15:22:46.381Z,39.33
2018-10-21T15:25:22.061Z,40.00
2018-10-21T15:27:58.028Z,36.98
2018-10-21T15:30:33.673Z,38.48
2018-10-21T15:33:09.461Z,41.92
2018-10-21T15:35:45.128Z,39.53
2018-10-21T15:38:20.666Z,39.03
2018-10-21T15:40:56.406Z,40.00
2018-10-21T15:43:32.091Z,40.25
2018-10-21T15:46:07.885Z,38.75
2018-10-21T15:48:43.487Z,40.75
2018-10-21T15:51:19.170Z,37.00
2018-10-21T15:53:54.994Z,41.58
2018-10-21T15:56:31.314Z,38.05
2018-10-21T15:59:07.898Z,43.58
2018-10-21T16:01:43.781Z,41.30
2018-10-21T16:04:19.652Z,38.50
2018-10-21T16:06:55.351Z,41.05
2018-10-21T16:09:31.241Z,38.30
2018-10-21T16:12:07.058Z,37.85
2018-10-21T16:14:42.818Z,41.33
2018-10-21T16:17:18.657Z,40.08
2018-10-21T16:19:55.047Z,46.02
2018-10-21T16:22:31.288Z,46.92
2018-10-21T16:25:12.022Z,45.45
2018-10-21T16:27:47.998Z,47.93
2018-10-21T16:30:24.815Z,42.83
2018-10-21T16:33:01.225Z,41.70
2018-10-21T16:35:36.854Z,41.18
2018-10-21T16:38:15.650Z,39.85
2018-10-21T16:40:52.679Z,42.27
2018-10-21T16:43:29.184Z,40.50
2018-10-21T16:46:05.887Z,44.40
2018-10-21T16:48:42.541Z,42.17
2018-10-21T16:51:18.423Z,44.75
2018-10-21T16:53:54.370Z,46.40
2018-10-21T16:56:32.358Z,47.45
2018-10-21T16:59:08.967Z,44.65
2018-10-21T17:01:45.546Z,41.53
2018-10-21T17:04:21.348Z,42.23
2018-10-21T17:06:57.482Z,43.52
2018-10-21T17:09:34.074Z,46.68
2018-10-21T17:12:09.765Z,43.28
2018-10-21T17:14:45.653Z,45.63
2018-10-21T17:17:21.475Z,43.85
2018-10-21T17:19:57.402Z,49.53
2018-10-21T17:22:33.049Z,44.33
2018-10-21T17:25:08.729Z,47.55
2018-10-21T17:27:44.691Z,45.73
2018-10-21T17:30:21.471Z,50.78
2018-10-21T17:32:57.312Z,45.58
2018-10-21T17:35:32.943Z,43.10
2018-10-21T17:38:08.685Z,46.98
2018-10-21T17:40:44.705Z,46.23
2018-10-21T17:43:20.344Z,43.23
2018-10-21T17:45:56.051Z,46.63
2018-10-21T17:48:31.896Z,50.75
2018-10-21T17:51:07.874Z,47.30
2018-10-21T17:53:43.625Z,46.73
2018-10-21T17:56:19.300Z,46.95
2018-10-21T17:58:55.187Z,43.68
2018-10-21T18:01:30.981Z,47.30
2018-10-21T18:04:07.789Z,49.00
2018-10-21T18:06:43.516Z,51.75
2018-10-21T18:09:19.205Z,50.98
2018-10-21T18:11:55.098Z,55.98
2018-10-21T18:14:30.886Z,50.20
2018-10-21T18:17:09.532Z,48.28
2018-10-21T18:19:46.696Z,53.68
2018-10-21T18:22:23.132Z,56.20
2018-10-21T18:24:59.120Z,48.35
2018-10-21T18:27:35.247Z,45.95
2018-10-21T18:30:12.529Z,51.20
2018-10-21T18:32:48.695Z,50.50
2018-10-21T18:35:25.362Z,51.68
2018-10-21T18:38:01.114Z,50.65
2018-10-21T18:40:37.911Z,48.28
2018-10-21T18:43:13.677Z,51.25
2018-10-21T18:45:48.861Z,48.00
2018-10-21T18:48:25.434Z,49.73
2018-10-21T18:51:01.059Z,48.13
2018-10-21T18:53:38.630Z,49.30
2018-10-21T18:56:14.275Z,49.53
2018-10-21T18:58:50.130Z,50.20
2018-10-21T19:01:25.783Z,55.17
2018-10-21T19:04:01.577Z,48.60
2018-10-21T19:06:37.488Z,48.48
2018-10-21T19:09:13.800Z,53.95
2018-10-21T19:11:49.976Z,49.38
2018-10-21T19:14:25.764Z,49.50
2018-10-21T19:17:01.684Z,52.15
2018-10-21T19:19:39.247Z,49.53
2018-10-21T19:22:15.377Z,45.38
2018-10-21T19:24:52.998Z,49.98
2018-10-21T19:27:28.924Z,48.73
2018-10-21T19:30:04.749Z,51.65
2018-10-21T19:32:40.866Z,46.73
2018-10-21T19:35:17.261Z,52.00
2018-10-21T19:37:53.085Z,49.03
2018-10-21T19:40:28.780Z,51.23
2018-10-21T19:43:04.562Z,52.73
2018-10-21T19:45:40.604Z,54.98
2018-10-21T19:48:16.574Z,54.13
2018-10-21T19:50:53.246Z,55.05
2018-10-21T19:53:29.189Z,54.30
2018-10-21T19:56:05.265Z,58.33
2018-10-21T19:58:41.848Z,54.95
2018-10-21T20:01:19.018Z,54.55
2018-10-21T20:03:55.461Z,50.88
2018-10-21T20:06:32.108Z,53.13
2018-10-21T20:09:09.036Z,51.65
2018-10-21T20:11:45.710Z,54.58
2018-10-21T20:14:21.413Z,54.27
2018-10-21T20:16:57.219Z,59.70
2018-10-21T20:19:32.862Z,52.78
2018-10-21T20:22:10.497Z,49.85
2018-10-21T20:24:46.719Z,52.83
2018-10-21T20:27:22.471Z,50.80
2018-10-21T20:29:58.203Z,54.55
2018-10-21T20:32:34.156Z,56.60
2018-10-21T20:35:11.087Z,51.23
2018-10-21T20:37:47.045Z,52.45
2018-10-21T20:40:22.914Z,53.17
2018-10-21T20:42:59.028Z,55.05
2018-10-21T20:45:35.397Z,51.95
2018-10-21T20:48:11.408Z,55.52
2018-10-21T20:50:47.028Z,54.58
2018-10-21T20:53:23.756Z,52.40
2018-10-21T20:55:59.361Z,51.58
2018-10-21T20:58:35.568Z,56.28
2018-10-21T21:01:11.953Z,51.90
2018-10-21T21:03:47.600Z,56.25
2018-10-21T21:06:23.290Z,60.83
2018-10-21T21:09:00.125Z,51.77
2018-10-21T21:11:36.168Z,55.95
2018-10-21T21:14:14.042Z,57.78
2018-10-21T21:16:50.640Z,56.70
2018-10-21T21:19:27.723Z,56.80
2018-10-21T21:22:05.471Z,54.55
2018-10-21T21:24:42.451Z,58.45
2018-10-21T21:27:18.884Z,57.98
2018-10-21T21:29:54.744Z,63.92
2018-10-21T21:32:30.667Z,61.40
2018-10-21T21:35:07.300Z,60.23
2018-10-21T21:37:43.592Z,61.13
2018-10-21T21:40:19.393Z,59.65
2018-10-21T21:42:54.993Z,64.30
2018-10-21T21:45:31.841Z,58.87
2018-10-21T21:48:07.676Z,69.55
2018-10-21T21:50:44.260Z,62.65
2018-10-21T21:53:19.968Z,67.05
2018-10-21T21:55:55.497Z,71.97
2018-10-21T21:58:33.511Z,66.53
2018-10-21T22:01:11.045Z,70.92
2018-10-21T22:03:46.661Z,62.65
2018-10-21T22:06:23.644Z,69.77
2018-10-21T22:09:00.251Z,63.50
2018-10-21T22:11:36.077Z,65.12
2018-10-21T22:14:11.833Z,71.67
2018-10-21T22:16:47.572Z,73.42
2018-10-21T22:19:23.261Z,67.15
2018-10-21T22:21:59.034Z,68.42
2018-10-21T22:24:34.875Z,70.10
2018-10-21T22:27:10.760Z,65.47
2018-10-21T22:29:46.479Z,69.10
2018-10-21T22:32:22.424Z,65.17
2018-10-21T22:34:58.598Z,71.28
2018-10-21T22:37:36.161Z,64.60
2018-10-21T22:40:12.153Z,67.53
2018-10-21T22:42:48.811Z,63.25
2018-10-21T22:45:24.847Z,68.00
2018-10-21T22:48:01.449Z,64.10
2018-10-21T22:50:37.138Z,67.65
2018-10-21T22:53:13.032Z,65.35
2018-10-21T22:55:48.863Z,72.80
2018-10-21T22:58:24.508Z,66.47
2018-10-21T23:01:00.359Z,60.90
2018-10-21T23:03:36.522Z,63.87
2018-10-21T23:06:12.930Z,60.52
2018-10-21T23:08:48.254Z,64.37
2018-10-21T23:11:24.131Z,64.77
2018-10-21T23:14:00.235Z,68.95
2018-10-21T23:16:36.700Z,66.92
2018-10-21T23:19:24.211Z,61.92
2018-10-21T23:22:01.551Z,74.87
2018-10-21T23:24:38.048Z,64.77
2018-10-21T23:27:15.261Z,63.98
2018-10-21T23:29:51.830Z,54.45
2018-10-21T23:32:27.760Z,56.70
2018-10-21T23:35:04.494Z,51.42
2018-10-21T23:37:40.956Z,44.73
2018-10-21T23:40:16.913Z,26.90
2018-10-21T23:42:52.781Z,19.50
2018-10-21T23:45:28.687Z,20.35
2018-10-21T23:48:04.334Z,20.00
2018-10-21T23:50:39.935Z,19.90
2018-10-21T23:53:15.725Z,17.02
2018-10-21T23:55:51.365Z,17.98
2018-10-21T23:58:27.135Z,15.83
